createdAt,value
2023-03-20T00:00:38.226Z,36.33
2023-03-20T00:05:39.636Z,36.16
2023-03-20T00:10:42.218Z,35.97
2023-03-20T00:15:43.975Z,35.71
2023-03-20T00:20:46.291Z,35.50
2023-03-20T00:25:47.716Z,35.39
2023-03-20T00:30:49.087Z,35.50
2023-03-20T00:35:50.467Z,35.39
2023-03-20T00:40:52.430Z,35.36
2023-03-20T00:45:53.808Z,35.08
2023-03-20T00:50:55.501Z,35.31
2023-03-20T00:55:56.882Z,35.23
2023-03-20T01:00:58.312Z,35.18
2023-03-20T01:05:59.797Z,35.62
2023-03-20T01:11:01.241Z,35.26
2023-03-20T01:16:02.708Z,35.33
2023-03-20T01:21:04.267Z,35.32
2023-03-20T01:26:18.407Z,35.47
2023-03-20T01:31:19.819Z,35.44
2023-03-20T01:36:22.358Z,35.59
2023-03-20T01:41:25.189Z,35.21
2023-03-20T01:46:28.407Z,35.12
2023-03-20T01:51:32.764Z,35.01
2023-03-20T01:56:38.163Z,35.11
2023-03-20T02:01:39.820Z,35.18
2023-03-20T02:06:41.692Z,35.04
2023-03-20T02:11:43.064Z,34.86
2023-03-20T02:16:44.474Z,34.59
2023-03-20T02:22:13.898Z,34.52
2023-03-20T02:27:22.503Z,34.55
2023-03-20T02:32:48.169Z,34.72
2023-03-20T02:38:08.767Z,34.76
2023-03-20T02:43:47.033Z,34.71
2023-03-20T02:49:15.511Z,34.72
2023-03-20T02:54:38.703Z,34.50
2023-03-20T02:59:41.725Z,34.51
2023-03-20T03:04:54.905Z,34.60
2023-03-20T03:10:27.184Z,34.36
2023-03-20T03:15:34.518Z,34.28
2023-03-20T03:20:39.377Z,34.47
2023-03-20T03:25:40.795Z,34.42
2023-03-20T03:30:42.183Z,34.64
2023-03-20T03:35:43.681Z,34.59
2023-03-20T03:41:23.852Z,34.48
2023-03-20T03:46:45.697Z,34.23
2023-03-20T03:51:49.216Z,34.60
2023-03-20T03:56:50.595Z,34.50
2023-03-20T04:01:52.377Z,34.68
2023-03-20T04:06:53.793Z,34.44
2023-03-20T04:11:55.200Z,34.20
2023-03-20T04:16:56.585Z,34.24
2023-03-20T04:21:57.971Z,34.45
2023-03-20T04:26:59.379Z,34.66
2023-03-20T04:32:00.782Z,34.50
2023-03-20T04:37:02.180Z,34.47
2023-03-20T04:42:04.303Z,34.51
2023-03-20T04:47:06.445Z,34.39
2023-03-20T04:52:07.955Z,34.62
2023-03-20T04:57:09.329Z,34.77
2023-03-20T05:02:14.735Z,34.44
2023-03-20T05:07:16.129Z,34.35
2023-03-20T05:12:17.528Z,34.21
2023-03-20T05:17:19.618Z,34.04
2023-03-20T05:22:21.001Z,34.20
2023-03-20T05:27:22.396Z,34.24
2023-03-20T05:32:23.807Z,34.20
2023-03-20T05:37:25.197Z,34.17
2023-03-20T05:42:26.576Z,33.98
2023-03-20T05:47:27.946Z,34.24
2023-03-20T05:52:29.321Z,34.24
2023-03-20T05:57:30.994Z,34.20
2023-03-20T06:02:32.424Z,34.31
2023-03-20T06:07:33.811Z,33.89
2023-03-20T06:12:35.466Z,33.79
2023-03-20T06:17:37.913Z,34.14
2023-03-20T06:22:39.325Z,33.74
2023-03-20T06:27:40.733Z,33.99
2023-03-20T06:32:42.447Z,34.01
2023-03-20T06:37:43.935Z,34.02
2023-03-20T06:42:45.361Z,33.87
2023-03-20T06:47:47.202Z,33.76
2023-03-20T06:52:48.592Z,33.92
2023-03-20T06:57:50.060Z,33.88
2023-03-20T07:02:51.492Z,34.08
2023-03-20T07:07:52.937Z,34.07
2023-03-20T07:12:54.874Z,34.15
2023-03-20T07:17:56.400Z,34.03
2023-03-20T07:22:57.784Z,34.00
2023-03-20T07:27:59.259Z,34.09
2023-03-20T07:33:00.715Z,34.14
2023-03-20T07:38:02.328Z,34.23
2023-03-20T07:43:03.718Z,34.70
2023-03-20T07:48:05.526Z,34.55
2023-03-20T07:53:07.762Z,34.65
2023-03-20T07:58:09.174Z,34.65
2023-03-20T08:03:10.844Z,34.62
2023-03-20T08:08:12.355Z,34.88
2023-03-20T08:13:13.906Z,34.76
2023-03-20T08:18:15.337Z,34.84
2023-03-20T08:23:20.082Z,34.74
2023-03-20T08:28:24.027Z,34.66
2023-03-20T08:33:28.224Z,34.76
2023-03-20T08:38:29.595Z,34.78
2023-03-20T08:43:31.369Z,34.60
2023-03-20T08:48:32.871Z,34.70
2023-03-20T08:53:35.374Z,34.74
2023-03-20T08:58:36.748Z,34.68
2023-03-20T09:03:38.174Z,34.44
2023-03-20T09:08:39.855Z,34.48
2023-03-20T09:13:41.351Z,34.44
2023-03-20T09:18:42.740Z,34.35
2023-03-20T09:23:44.173Z,34.61
2023-03-20T09:28:45.591Z,34.45
2023-03-20T09:33:46.975Z,34.53
2023-03-20T09:38:48.401Z,34.74
2023-03-20T09:44:07.715Z,34.55
2023-03-20T09:49:23.203Z,34.41
2023-03-20T09:54:53.087Z,34.38
2023-03-20T09:59:57.590Z,34.54
2023-03-20T10:04:58.967Z,34.24
2023-03-20T10:10:00.425Z,34.51
2023-03-20T10:15:19.555Z,34.82
2023-03-20T10:20:29.238Z,35.05
2023-03-20T10:25:52.207Z,35.01
2023-03-20T10:31:29.892Z,35.23
2023-03-20T10:36:43.279Z,35.00
2023-03-20T10:41:51.154Z,34.96
2023-03-20T10:46:53.449Z,34.97
2023-03-20T10:51:56.484Z,34.72
2023-03-20T10:56:59.593Z,35.18
2023-03-20T11:02:01.260Z,35.16
2023-03-20T11:07:37.910Z,35.26
2023-03-20T11:12:49.020Z,35.37
2023-03-20T11:17:54.700Z,35.16
2023-03-20T11:22:59.814Z,35.21
2023-03-20T11:28:21.067Z,35.19
2023-03-20T11:33:22.472Z,35.11
2023-03-20T11:38:23.864Z,35.14
2023-03-20T11:43:26.929Z,34.99
2023-03-20T11:48:38.993Z,35.37
2023-03-20T11:53:49.075Z,35.21
2023-03-20T11:59:06.617Z,35.40
2023-03-20T12:04:11.159Z,35.60
2023-03-20T12:09:26.343Z,35.69
2023-03-20T12:14:32.961Z,35.63
2023-03-20T12:19:34.356Z,35.96
2023-03-20T12:24:42.159Z,35.71
2023-03-20T12:29:55.777Z,35.85
2023-03-20T12:35:07.369Z,36.05
2023-03-20T12:40:18.712Z,35.98
2023-03-20T12:45:25.088Z,36.15
2023-03-20T12:50:28.822Z,36.14
2023-03-20T12:55:48.396Z,36.14
2023-03-20T13:01:20.601Z,36.10
2023-03-20T13:06:49.435Z,36.45
2023-03-20T13:12:01.649Z,36.05
2023-03-20T13:17:28.805Z,35.92
2023-03-20T13:22:58.169Z,35.85
2023-03-20T13:28:21.752Z,35.80
2023-03-20T13:33:50.970Z,35.91
2023-03-20T13:38:59.264Z,35.89
2023-03-20T13:44:01.864Z,36.04
2023-03-20T13:49:13.400Z,35.74
2023-03-20T13:54:20.730Z,35.88
2023-03-20T13:59:49.131Z,35.86
2023-03-20T14:04:52.953Z,35.89
2023-03-20T14:09:54.469Z,35.91
2023-03-20T14:14:56.511Z,35.81
2023-03-20T14:19:57.981Z,36.12
2023-03-20T14:25:00.599Z,35.96
2023-03-20T14:30:30.127Z,36.15
2023-03-20T14:35:32.074Z,35.91
2023-03-20T14:40:34.970Z,36.25
2023-03-20T14:45:42.644Z,36.26
2023-03-20T14:50:46.896Z,36.46
2023-03-20T14:55:51.145Z,36.48
2023-03-20T15:00:52.586Z,36.47
2023-03-20T15:05:56.774Z,36.78
2023-03-20T15:10:59.423Z,37.11
2023-03-20T15:16:06.930Z,37.30
2023-03-20T15:21:16.328Z,37.70
2023-03-20T15:26:18.712Z,37.80
2023-03-20T15:31:24.557Z,37.95
2023-03-20T15:36:28.049Z,37.80
2023-03-20T15:41:31.596Z,37.65
2023-03-20T15:46:33.093Z,38.01
2023-03-20T15:51:34.475Z,37.94
2023-03-20T15:56:36.410Z,38.00
2023-03-20T16:01:37.869Z,38.05
2023-03-20T16:06:46.187Z,37.99
2023-03-20T16:11:49.587Z,37.94
2023-03-20T16:16:51.468Z,38.00
2023-03-20T16:22:00.455Z,37.91
2023-03-20T16:27:08.034Z,37.90
2023-03-20T16:32:34.082Z,37.92
2023-03-20T16:37:43.348Z,37.46
2023-03-20T16:42:45.071Z,37.67
2023-03-20T16:47:46.543Z,37.83
2023-03-20T16:52:52.333Z,37.42
2023-03-20T16:57:55.210Z,37.34
2023-03-20T17:03:16.615Z,37.30
2023-03-20T17:08:25.974Z,37.18
2023-03-20T17:13:27.440Z,37.27
2023-03-20T17:18:28.923Z,37.45
2023-03-20T17:23:30.349Z,37.23
2023-03-20T17:28:34.548Z,37.31
2023-03-20T17:33:36.358Z,36.92
2023-03-20T17:38:37.756Z,36.59
2023-03-20T17:43:39.197Z,36.51
2023-03-20T17:48:40.593Z,36.20
2023-03-20T17:53:41.973Z,36.24
2023-03-20T17:58:46.136Z,36.27
2023-03-20T18:03:47.519Z,36.26
2023-03-20T18:08:48.906Z,36.02
2023-03-20T18:13:50.342Z,35.81
2023-03-20T18:18:52.414Z,35.89
2023-03-20T18:23:53.793Z,35.64
2023-03-20T18:28:55.495Z,35.89
2023-03-20T18:33:57.021Z,36.00
2023-03-20T18:38:58.585Z,35.92
2023-03-20T18:44:00.011Z,35.75
2023-03-20T18:49:01.436Z,35.46
2023-03-20T18:54:02.824Z,35.40
2023-03-20T18:59:06.457Z,35.68
2023-03-20T19:04:08.005Z,35.69
2023-03-20T19:09:11.713Z,35.88
2023-03-20T19:14:14.023Z,35.80
2023-03-20T19:19:15.569Z,35.78
2023-03-20T19:24:19.301Z,35.71
2023-03-20T19:29:20.678Z,35.84
2023-03-20T19:35:00.828Z,35.99
2023-03-20T19:39:43.423Z,36.16
2023-03-20T19:44:44.960Z,36.34
2023-03-20T19:49:46.408Z,35.80
2023-03-20T19:55:01.822Z,35.74
2023-03-20T20:05:36.736Z,35.66
2023-03-20T20:10:43.280Z,35.74
2023-03-20T20:15:45.291Z,35.91
2023-03-20T20:21:32.021Z,35.68
2023-03-20T20:26:09.433Z,35.45
2023-03-20T20:31:10.867Z,35.51
2023-03-20T20:37:20.337Z,35.58
2023-03-20T20:41:33.895Z,35.58
2023-03-20T20:46:35.287Z,35.57
2023-03-20T20:51:36.697Z,35.47
2023-03-20T20:56:38.084Z,35.44
2023-03-20T21:01:39.521Z,35.29
2023-03-20T21:07:11.566Z,35.35
2023-03-20T21:12:02.741Z,35.37
2023-03-20T21:17:05.752Z,35.40
2023-03-20T21:22:08.119Z,35.47
2023-03-20T21:27:12.410Z,35.34
2023-03-20T21:32:15.832Z,35.21
2023-03-20T21:42:39.640Z,35.18
2023-03-20T21:54:13.612Z,35.47
2023-03-20T21:59:02.916Z,35.36
2023-03-20T22:04:57.621Z,35.39
2023-03-20T22:31:28.504Z,35.48
2023-03-20T22:36:46.881Z,35.35
2023-03-20T22:46:46.236Z,35.38
2023-03-20T22:52:07.806Z,35.64
2023-03-20T22:57:09.555Z,35.63
2023-03-20T23:02:11.362Z,35.59
2023-03-20T23:07:12.750Z,35.68
2023-03-20T23:12:14.190Z,35.78
2023-03-20T23:17:15.588Z,35.74
2023-03-20T23:22:16.970Z,35.83
2023-03-20T23:27:19.359Z,35.70
2023-03-20T23:32:20.766Z,35.55
2023-03-20T23:37:22.136Z,35.54
2023-03-20T23:42:30.375Z,35.73
2023-03-20T23:47:43.860Z,35.65
2023-03-20T23:52:57.218Z,35.86
2023-03-20T23:58:02.695Z,35.92
